Time;durP1;ratioP1;P1;durP2;ratioP2;P2;SDS_P1;SDS_P2;PMS_P1;PMS_P2;Temp;Humidity;BMP_temperature;BMP_pressure;BME280_temperature;BME280_humidity;BME280_pressure;Samples;Min_cycle;Max_cycle;Signal;HPM_P1;HPM_P2
2023/08/14 00:02:23;;;;;;;9.60;5.10;;;;;;;23.34;68.73;99271.95;223096;185;137660;-74
2023/08/14 00:07:26;;;;;;;6.00;5.10;;;;;;;23.32;68.76;99270.42;223105;184;147366;-68
2023/08/14 00:12:29;;;;;;;8.90;4.80;;;;;;;23.28;68.93;99263.41;223124;184;138997;-67
2023/08/14 00:17:32;;;;;;;7.20;4.40;;;;;;;23.21;68.89;99260.02;223316;184;136565;-67
2023/08/14 00:22:35;;;;;;;6.70;4.50;;;;;;;23.16;69.15;99253.33;223395;184;146301;-71
2023/08/14 00:27:39;;;;;;;8.70;4.70;;;;;;;23.16;69.20;99256.77;223244;185;139343;-71
2023/08/14 00:32:42;;;;;;;11.50;5.00;;;;;;;23.13;69.29;99259.10;223177;184;137107;-71
2023/08/14 00:37:48;;;;;;;10.00;4.40;;;;;;;23.10;69.24;99269.22;223051;184;146362;-68
2023/08/14 00:42:54;;;;;;;9.30;5.20;;;;;;;23.03;69.43;99274.55;223104;184;138438;-69
2023/08/14 00:48:01;;;;;;;10.40;5.80;;;;;;;22.93;69.58;99281.59;223063;184;137381;-69
2023/08/14 00:53:05;;;;;;;9.80;4.60;;;;;;;22.83;69.76;99295.15;223005;184;146854;-67
2023/08/14 00:58:08;;;;;;;13.40;4.80;;;;;;;22.75;70.02;99303.22;222972;184;139105;-67
2023/08/14 01:03:12;;;;;;;9.50;5.00;;;;;;;22.75;70.03;99308.00;222944;184;139567;-66
2023/08/14 01:08:16;;;;;;;7.60;5.10;;;;;;;22.75;69.99;99310.55;222953;184;149537;-66
2023/08/14 01:13:31;;;;;;;11.70;5.40;;;;;;;22.71;70.21;99317.63;223302;184;139102;-66
2023/08/14 01:18:38;;;;;;;8.30;4.50;;;;;;;22.68;70.34;99327.90;223357;183;139395;-66
2023/08/14 01:24:00;;;;;;;7.60;5.20;;;;;;;22.66;70.56;99333.89;223285;184;145830;-66
2023/08/14 01:29:04;;;;;;;10.60;4.80;;;;;;;22.64;70.81;99333.04;223206;184;139318;-66
2023/08/14 01:34:07;;;;;;;7.80;4.80;;;;;;;22.67;70.84;99335.55;223086;184;137879;-67
2023/08/14 01:39:16;;;;;;;6.50;4.60;;;;;;;22.73;70.88;99336.80;223273;183;146586;-67
2023/08/14 01:44:24;;;;;;;10.00;5.30;;;;;;;22.77;70.92;99337.58;223134;184;139060;-67
2023/08/14 01:49:30;;;;;;;10.20;5.80;;;;;;;22.77;70.94;99335.45;223244;183;136757;-68
2023/08/14 01:54:34;;;;;;;12.90;5.40;;;;;;;22.75;70.99;99336.35;223279;183;145832;-68
2023/08/14 01:59:45;;;;;;;10.70;5.10;;;;;;;22.72;71.02;99326.69;223351;183;139785;-68
2023/08/14 02:04:48;;;;;;;9.20;4.40;;;;;;;22.68;70.99;99324.07;223192;184;137745;-67
2023/08/14 02:09:55;;;;;;;9.40;4.60;;;;;;;22.66;71.19;99327.59;223165;184;145469;-67
2023/08/14 02:14:58;;;;;;;11.50;5.00;;;;;;;22.70;71.14;99326.81;223291;184;143027;-68
2023/08/14 02:25:55;;;;;;;11.00;4.90;;;;;;;22.75;71.05;99331.45;221124;193;677691;-68
2023/08/14 02:31:02;;;;;;;8.00;5.20;;;;;;;22.71;71.08;99329.23;223486;181;136502;-69
2023/08/14 02:36:05;;;;;;;8.10;4.40;;;;;;;22.67;71.19;99330.53;223668;181;144512;-69
2023/08/14 02:41:08;;;;;;;14.10;5.10;;;;;;;22.62;71.15;99331.77;223444;181;138958;-66
2023/08/14 02:46:12;;;;;;;13.70;4.30;;;;;;;22.59;71.23;99328.65;223541;181;140794;-64
2023/08/14 02:51:16;;;;;;;8.10;4.80;;;;;;;22.59;71.28;99341.20;223467;181;144185;-67
2023/08/14 02:56:30;;;;;;;9.60;4.30;;;;;;;22.58;71.47;99341.98;223480;181;138788;-66
2023/08/14 03:01:33;;;;;;;8.00;4.60;;;;;;;22.57;71.60;99341.60;223564;181;136544;-69
2023/08/14 03:06:37;;;;;;;11.40;5.10;;;;;;;22.55;71.67;99336.73;223567;182;143700;-67
2023/08/14 03:11:43;;;;;;;8.70;4.80;;;;;;;22.51;71.87;99338.92;223540;181;138903;-67
2023/08/14 03:16:48;;;;;;;11.10;4.40;;;;;;;22.51;72.07;99344.89;223407;181;137630;-67
2023/08/14 03:21:52;;;;;;;10.70;5.10;;;;;;;22.53;72.10;99346.88;223434;182;147759;-67
2023/08/14 03:26:55;;;;;;;12.60;5.20;;;;;;;22.56;72.04;99348.38;223483;182;138848;-67
2023/08/14 03:31:59;;;;;;;14.00;5.60;;;;;;;22.60;71.93;99348.32;223416;181;138948;-67
2023/08/14 03:37:23;;;;;;;9.40;5.30;;;;;;;22.72;71.50;99350.25;221856;193;677767;-66
2023/08/14 03:42:26;;;;;;;10.50;5.50;;;;;;;22.71;71.66;99350.92;222687;187;136049;-67
2023/08/14 03:47:29;;;;;;;14.70;4.80;;;;;;;22.65;71.83;99348.84;223345;184;144636;-67
2023/08/14 03:52:33;;;;;;;10.20;5.00;;;;;;;22.64;71.89;99353.08;223223;183;138801;-67
2023/08/14 03:57:36;;;;;;;11.30;5.00;;;;;;;22.64;72.16;99359.92;223308;183;139033;-66
2023/08/14 04:02:41;;;;;;;9.80;4.90;;;;;;;22.65;72.18;99369.60;223277;183;144035;-68
2023/08/14 04:07:45;;;;;;;11.80;5.10;;;;;;;22.64;72.15;99369.39;223399;183;139089;-68
2023/08/14 04:12:50;;;;;;;12.20;5.10;;;;;;;22.61;72.39;99376.23;223292;183;139263;-68
2023/08/14 04:17:55;;;;;;;11.60;5.10;;;;;;;22.60;72.65;99374.88;223416;184;144150;-67
2023/08/14 04:23:01;;;;;;;17.70;6.10;;;;;;;22.64;72.86;99371.73;223247;184;138736;-69
2023/08/14 04:28:06;;;;;;;11.00;5.60;;;;;;;22.73;72.79;99372.20;223246;184;139246;-70
2023/08/14 04:33:09;;;;;;;;;;;;;;;22.79;72.65;99374.44;223181;184;145770;-66
2023/08/14 04:38:16;;;;;;;9.30;5.40;;;;;;;22.80;72.51;99375.45;223589;182;139098;-66
2023/08/14 04:43:22;;;;;;;63.20;53.50;;;;;;;22.80;72.45;99371.59;223540;182;136447;-65
2023/08/14 04:48:25;;;;;;;35.20;27.80;;;;;;;22.91;72.18;99370.63;223333;181;146009;-66
2023/08/14 04:53:29;;;;;;;19.20;14.80;;;;;;;23.08;71.07;99377.02;223453;182;139644;-63
2023/08/14 04:58:32;;;;;;;35.30;29.50;;;;;;;23.26;70.71;99369.56;223465;182;137052;-66
2023/08/14 05:03:36;;;;;;;28.50;23.50;;;;;;;23.37;70.82;99365.73;223559;182;147409;-66
2023/08/14 05:08:39;;;;;;;21.20;15.10;;;;;;;23.48;70.52;99369.10;223425;182;138706;-65
2023/08/14 05:13:44;;;;;;;9.40;6.50;;;;;;;23.55;70.41;99373.04;223529;182;137341;-65
2023/08/14 05:18:48;;;;;;;9.20;4.70;;;;;;;23.63;69.45;99370.92;223543;182;145801;-65
2023/08/14 05:23:51;;;;;;;25.10;20.70;;;;;;;23.75;68.19;99374.45;223454;182;138871;-68
2023/08/14 05:28:54;;;;;;;16.30;13.60;;;;;;;23.93;67.05;99375.41;223391;181;136632;-65
2023/08/14 05:33:58;;;;;;;6.10;4.80;;;;;;;24.07;66.03;99383.35;223398;182;146354;-64
2023/08/14 05:39:01;;;;;;;10.00;6.70;;;;;;;24.14;64.98;99388.20;223393;181;139581;-67
2023/08/14 05:44:05;;;;;;;49.80;36.10;;;;;;;24.17;64.87;99393.71;223390;183;138899;-64
2023/08/14 05:49:08;;;;;;;9.40;6.30;;;;;;;24.24;64.35;99398.70;223387;181;145757;-66
2023/08/14 05:54:11;;;;;;;7.40;4.10;;;;;;;24.32;63.73;99397.98;223473;181;139906;-68
2023/08/14 05:59:15;;;;;;;5.20;4.10;;;;;;;24.41;62.48;99399.45;223526;182;136777;-67
2023/08/14 06:04:18;;;;;;;56.10;40.90;;;;;;;24.49;62.18;99398.41;223431;178;145975;-65
2023/08/14 06:09:21;;;;;;;10.90;5.10;;;;;;;24.50;61.09;99397.80;223424;182;139566;-69
2023/08/14 06:14:26;;;;;;;5.20;4.10;;;;;;;24.52;61.54;99402.25;223324;182;137596;-67
2023/08/14 06:19:29;;;;;;;48.70;35.20;;;;;;;24.54;61.15;99405.84;223384;181;145869;-65
2023/08/14 06:24:32;;;;;;;9.60;6.00;;;;;;;24.59;61.38;99409.94;223360;181;139066;-65
2023/08/14 06:29:36;;;;;;;101.80;90.70;;;;;;;24.69;61.46;99407.68;223439;181;136615;-64
2023/08/14 06:34:41;;;;;;;12.30;8.30;;;;;;;24.79;61.11;99407.30;223510;182;145790;-64
2023/08/14 06:39:44;;;;;;;5.40;4.20;;;;;;;24.85;60.16;99410.64;223224;182;138835;-63
2023/08/14 06:44:47;;;;;;;10.30;4.20;;;;;;;24.89;59.88;99415.59;223402;182;137836;-63
2023/08/14 06:49:50;;;;;;;6.20;4.00;;;;;;;24.95;59.81;99411.44;223420;182;145458;-64
2023/08/14 06:54:53;;;;;;;12.80;8.00;;;;;;;24.99;59.17;99412.71;223340;181;139935;-64
2023/08/14 06:59:57;;;;;;;16.40;12.50;;;;;;;25.09;58.82;99408.38;223579;182;137247;-64
2023/08/14 07:05:00;;;;;;;40.70;31.60;;;;;;;25.17;57.99;99410.73;223466;182;146113;-63
2023/08/14 07:10:04;;;;;;;11.90;9.10;;;;;;;25.26;57.48;99414.79;223502;182;138743;-60
2023/08/14 07:15:10;;;;;;;8.40;4.10;;;;;;;25.31;57.25;99414.77;223412;183;137735;-61
2023/08/14 07:20:14;;;;;;;6.30;4.70;;;;;;;25.35;56.23;99427.25;223435;182;145901;-64
2023/08/14 07:25:17;;;;;;;298.80;259.10;;;;;;;25.44;55.84;99433.37;223445;182;140964;-62
2023/08/14 07:30:20;;;;;;;30.30;23.10;;;;;;;25.56;56.11;99430.98;223413;182;140443;-63
2023/08/14 07:35:23;;;;;;;12.10;6.70;;;;;;;25.67;56.06;99428.59;223281;182;146786;-66
2023/08/14 07:40:27;;;;;;;8.00;4.20;;;;;;;25.71;55.15;99426.79;223444;182;139428;-60
2023/08/14 07:45:30;;;;;;;7.70;3.90;;;;;;;25.76;55.18;99424.98;223453;182;136845;-59
2023/08/14 07:50:33;;;;;;;8.70;4.00;;;;;;;25.85;54.97;99423.54;223518;182;146559;-59
2023/08/14 07:55:37;;;;;;;7.40;4.00;;;;;;;25.93;54.93;99421.89;223262;182;138865;-60
2023/08/14 08:00:41;;;;;;;12.70;5.90;;;;;;;26.00;54.59;99423.52;223434;182;137257;-61
2023/08/14 08:05:46;;;;;;;195.00;156.50;;;;;;;26.11;53.03;99423.29;223440;182;147031;-60
2023/08/14 08:10:49;;;;;;;;;;;;;;;26.24;52.10;99423.77;223542;182;139418;-60
2023/08/14 08:15:52;;;;;;;13.20;8.60;;;;;;;26.33;51.43;99421.01;223529;182;129478;-61
2023/08/14 08:20:56;;;;;;;10.70;6.30;;;;;;;26.42;51.61;99420.69;223445;182;146768;-61
2023/08/14 08:25:59;;;;;;;4.30;3.20;;;;;;;26.52;50.03;99424.38;223395;182;140507;-60
2023/08/14 08:31:02;;;;;;;6.90;3.20;;;;;;;26.62;48.73;99425.23;223580;181;139372;-61
2023/08/14 08:36:08;;;;;;;4.50;3.00;;;;;;;26.71;47.76;99424.93;223508;182;146668;-60
2023/08/14 08:41:22;;;;;;;4.80;3.00;;;;;;;26.79;47.40;99421.80;223522;182;141111;-60
2023/08/14 08:46:27;;;;;;;3.10;2.70;;;;;;;26.88;47.72;99420.08;223538;182;137011;-62
2023/08/14 08:51:30;;;;;;;3.70;2.80;;;;;;;26.98;47.47;99423.05;223461;182;145503;-62
2023/08/14 08:56:34;;;;;;;3.70;2.20;;;;;;;27.08;46.17;99422.46;223519;182;138670;-60
2023/08/14 09:01:38;;;;;;;5.20;2.50;;;;;;;27.22;46.08;99419.48;223537;182;138179;-60
2023/08/14 09:06:42;;;;;;;5.30;2.80;;;;;;;27.33;45.12;99416.48;223540;182;145704;-61
2023/08/14 09:11:45;;;;;;;4.60;2.70;;;;;;;27.40;44.98;99412.70;223541;182;143024;-61
2023/08/14 09:16:53;;;;;;;8.00;2.90;;;;;;;27.48;44.63;99411.45;223514;182;136443;-60
2023/08/14 09:21:56;;;;;;;4.00;2.70;;;;;;;27.55;45.55;99410.08;223477;182;146314;-60
2023/08/14 09:27:00;;;;;;;3.10;2.40;;;;;;;27.52;45.20;99409.30;223411;182;140136;-61
2023/08/14 09:32:03;;;;;;;3.10;2.30;;;;;;;27.68;44.02;99401.03;223493;183;138848;-59
2023/08/14 09:37:07;;;;;;;5.00;2.60;;;;;;;27.85;43.50;99397.62;223525;182;145968;-61
2023/08/14 09:42:10;;;;;;;3.90;2.40;;;;;;;28.01;42.23;99396.65;223392;182;139130;-60
2023/08/14 09:47:15;;;;;;;3.00;2.00;;;;;;;28.13;41.62;99397.88;223478;182;137341;-61
2023/08/14 09:52:23;;;;;;;4.60;2.40;;;;;;;28.27;41.00;99399.79;223367;182;146695;-59
2023/08/14 09:57:27;;;;;;;3.20;2.10;;;;;;;28.37;40.75;99401.67;223466;182;140223;-61
2023/08/14 10:02:33;;;;;;;4.20;2.40;;;;;;;28.54;40.34;99391.60;223433;181;137881;-60
2023/08/14 10:07:38;;;;;;;5.10;2.50;;;;;;;28.67;40.78;99392.54;223451;182;146776;-61
2023/08/14 10:12:57;;;;;;;4.70;2.40;;;;;;;28.78;40.81;99392.21;223364;181;141226;-60
2023/08/14 10:18:16;;;;;;;4.50;2.40;;;;;;;29.02;40.78;99388.70;223537;182;137545;-61
2023/08/14 10:23:20;;;;;;;4.80;2.40;;;;;;;29.31;41.43;99380.39;223410;181;145830;-60
2023/08/14 10:28:24;;;;;;;9.40;2.60;;;;;;;29.55;39.41;99379.64;223260;182;139619;-60
2023/08/14 10:33:28;;;;;;;4.70;2.20;;;;;;;29.69;39.05;99377.02;223245;182;137317;-61
2023/08/14 10:38:42;;;;;;;4.70;2.40;;;;;;;29.83;38.46;99373.97;223345;182;145991;-61
2023/08/14 10:43:52;;;;;;;5.10;2.50;;;;;;;30.06;38.57;99371.73;223421;182;140382;-60
2023/08/14 10:48:55;;;;;;;4.10;2.10;;;;;;;30.16;38.07;99368.64;223451;182;136635;-61
2023/08/14 10:54:21;;;;;;;3.40;2.40;;;;;;;30.37;38.39;99369.02;223429;182;145461;-60
2023/08/14 10:59:28;;;;;;;4.70;2.60;;;;;;;30.57;37.77;99364.21;223522;182;139998;-61
2023/08/14 11:04:36;;;;;;;4.60;2.40;;;;;;;30.60;37.80;99361.23;223447;181;137907;-61
2023/08/14 11:09:40;;;;;;;4.20;2.40;;;;;;;30.66;36.78;99355.85;223404;182;146443;-60
2023/08/14 11:14:43;;;;;;;6.90;2.50;;;;;;;30.81;36.30;99354.33;223405;181;139310;-62
2023/08/14 11:19:47;;;;;;;4.80;2.20;;;;;;;30.96;35.96;99348.52;223446;182;137556;-60
2023/08/14 11:24:50;;;;;;;4.60;2.20;;;;;;;31.05;35.32;99343.12;223391;181;145525;-60
2023/08/14 11:29:53;;;;;;;3.00;2.10;;;;;;;31.16;35.01;99342.52;223419;182;138894;-60
2023/08/14 11:35:05;;;;;;;4.00;2.30;;;;;;;31.36;35.14;99346.21;223439;182;136728;-61
2023/08/14 11:40:10;;;;;;;5.00;2.50;;;;;;;31.50;34.79;99345.44;223449;182;146759;-63
2023/08/14 11:45:13;;;;;;;5.80;2.30;;;;;;;31.74;34.89;99343.20;223481;182;139489;-59
2023/08/14 11:50:18;;;;;;;5.40;2.60;;;;;;;31.93;35.17;99339.70;223561;182;136943;-59
2023/08/14 11:55:21;;;;;;;3.90;2.30;;;;;;;32.12;34.14;99334.14;223483;182;145500;-61
2023/08/14 12:00:25;;;;;;;4.00;2.30;;;;;;;32.17;32.99;99330.45;223469;182;139073;-60
2023/08/14 12:05:35;;;;;;;4.70;2.40;;;;;;;32.27;32.88;99329.88;223478;182;136674;-59
2023/08/14 12:10:39;;;;;;;7.70;2.50;;;;;;;32.50;33.50;99324.88;223479;182;147802;-60
2023/08/14 12:15:42;;;;;;;;;;;;;;;32.66;33.23;99317.14;223366;182;139526;-60
2023/08/14 12:20:53;;;;;;;4.20;2.30;;;;;;;32.81;32.69;99313.04;223534;182;132657;-59
2023/08/14 12:25:57;;;;;;;5.20;2.10;;;;;;;32.88;32.86;99309.45;223479;182;148212;-61
2023/08/14 12:31:00;;;;;;;6.80;2.60;;;;;;;32.97;32.84;99298.56;223408;182;139313;-61
2023/08/14 12:36:04;;;;;;;8.00;2.90;;;;;;;33.09;32.64;99300.61;223429;181;136927;-62
2023/08/14 12:41:07;;;;;;;5.30;2.20;;;;;;;33.23;32.80;99297.77;223313;182;147787;-59
2023/08/14 12:46:11;;;;;;;3.80;2.10;;;;;;;33.36;32.84;99295.02;223388;181;138547;-60
2023/08/14 12:51:14;;;;;;;5.60;2.10;;;;;;;33.45;32.67;99292.83;223495;183;137688;-61
2023/08/14 12:56:17;;;;;;;3.50;2.40;;;;;;;33.67;32.69;99293.65;223396;182;147679;-63
2023/08/14 13:01:21;;;;;;;7.60;2.50;;;;;;;33.80;32.35;99295.39;223399;182;138955;-64
2023/08/14 13:06:30;;;;;;;6.20;2.50;;;;;;;33.88;32.11;99291.92;223450;183;137114;-59
2023/08/14 13:11:34;;;;;;;4.20;2.70;;;;;;;33.96;31.63;99289.48;223446;181;148403;-61
2023/08/14 13:16:37;;;;;;;3.60;2.30;;;;;;;33.97;31.02;99285.46;223445;182;138893;-61
2023/08/14 13:21:40;;;;;;;5.30;2.30;;;;;;;34.04;31.07;99286.38;223514;182;140660;-60
2023/08/14 13:26:44;;;;;;;4.20;2.30;;;;;;;34.17;30.77;99283.73;223395;183;147380;-60
2023/08/14 13:31:47;;;;;;;6.10;2.60;;;;;;;34.26;30.50;99283.96;223411;182;139036;-60
2023/08/14 13:36:50;;;;;;;3.60;2.20;;;;;;;34.43;30.50;99278.41;223414;182;137696;-59
2023/08/14 13:41:53;;;;;;;5.70;2.20;;;;;;;34.54;30.56;99277.35;223523;182;147649;-63
2023/08/14 13:46:56;;;;;;;5.40;2.60;;;;;;;34.66;30.39;99271.88;223400;181;140727;-63
2023/08/14 13:52:01;;;;;;;3.40;2.50;;;;;;;34.71;30.27;99271.82;223328;182;137011;-63
2023/08/14 13:57:04;;;;;;;5.80;2.60;;;;;;;34.81;30.15;99269.75;223495;182;147887;-62
2023/08/14 14:02:09;;;;;;;4.80;2.50;;;;;;;34.91;30.25;99264.33;223348;178;139369;-61
2023/08/14 14:07:12;;;;;;;5.70;2.70;;;;;;;35.02;30.27;99259.65;223350;182;137195;-59
2023/08/14 14:12:16;;;;;;;4.30;2.60;;;;;;;35.09;30.26;99256.44;223306;182;147774;-60
2023/08/14 14:17:19;;;;;;;7.00;2.80;;;;;;;35.11;30.09;99250.90;223414;182;142000;-61
2023/08/14 14:22:23;;;;;;;7.50;3.10;;;;;;;35.07;30.01;99246.56;223362;182;138113;-60
2023/08/14 14:27:26;;;;;;;7.50;4.70;;;;;;;35.03;30.08;99244.52;223348;182;150536;-61
2023/08/14 14:32:29;;;;;;;6.20;3.10;;;;;;;34.87;30.31;99245.40;223350;182;140463;-61
2023/08/14 14:37:33;;;;;;;9.70;2.80;;;;;;;34.62;30.06;99243.12;223439;182;137631;-62
2023/08/14 14:42:36;;;;;;;6.90;3.10;;;;;;;34.40;30.67;99241.76;223408;182;147645;-60
2023/08/14 14:47:39;;;;;;;4.90;3.00;;;;;;;34.11;31.12;99242.27;223450;182;138879;-60
2023/08/14 14:52:42;;;;;;;10.80;4.50;;;;;;;33.82;31.68;99240.77;223491;182;136753;-60
2023/08/14 14:57:45;;;;;;;7.20;2.90;;;;;;;33.37;32.65;99239.14;223405;181;147646;-60
2023/08/14 15:02:50;;;;;;;10.10;4.90;;;;;;;33.03;33.59;99238.78;223392;181;139040;-59
2023/08/14 15:07:54;;;;;;;7.30;4.10;;;;;;;32.74;34.46;99241.84;223437;181;137767;-59
2023/08/14 15:12:57;;;;;;;7.90;4.80;;;;;;;32.50;35.32;99235.47;223369;181;147658;-59
2023/08/14 15:18:00;;;;;;;6.40;3.10;;;;;;;32.25;36.22;99233.99;223459;182;141673;-59
2023/08/14 15:23:03;;;;;;;7.00;3.10;;;;;;;32.02;36.75;99232.61;223427;181;137508;-60
2023/08/14 15:28:07;;;;;;;8.00;3.50;;;;;;;31.84;37.12;99226.20;223324;182;149376;-60
2023/08/14 15:33:10;;;;;;;7.00;3.10;;;;;;;31.69;37.98;99231.72;223361;181;138886;-62
2023/08/14 15:38:13;;;;;;;5.30;3.80;;;;;;;31.56;38.03;99230.79;223546;182;137534;-61
2023/08/14 15:43:16;;;;;;;9.50;3.70;;;;;;;31.40;38.30;99225.74;223370;182;147965;-59
2023/08/14 15:48:20;;;;;;;8.30;3.40;;;;;;;31.26;38.56;99219.65;223445;182;139362;-59
2023/08/14 15:53:24;;;;;;;10.40;3.40;;;;;;;31.14;39.02;99213.54;223595;182;136879;-59
2023/08/14 15:58:27;;;;;;;5.00;2.90;;;;;;;31.05;39.38;99214.84;223542;182;147520;-60
2023/08/14 16:03:30;;;;;;;4.50;2.90;;;;;;;30.98;39.33;99214.44;223441;182;140717;-60
2023/08/14 16:08:33;;;;;;;5.60;3.10;;;;;;;30.96;39.53;99212.45;223427;182;137992;-60
2023/08/14 16:13:36;;;;;;;3.80;3.30;;;;;;;30.92;40.13;99214.43;223492;182;147703;-60
2023/08/14 16:18:52;;;;;;;5.20;4.00;;;;;;;30.82;40.62;99219.23;223432;182;138737;-61
2023/08/14 16:23:56;;;;;;;7.10;4.10;;;;;;;30.75;40.88;99217.87;223543;182;138381;-62
2023/08/14 16:29:00;;;;;;;6.80;4.10;;;;;;;30.68;41.23;99225.26;223360;182;147683;-61
2023/08/14 16:34:03;;;;;;;6.90;4.00;;;;;;;30.58;41.57;99224.67;223315;182;138820;-60
2023/08/14 16:39:06;;;;;;;6.20;4.10;;;;;;;30.48;41.89;99226.17;223451;182;152413;-61
2023/08/14 16:44:09;;;;;;;7.60;3.90;;;;;;;30.40;41.96;99225.30;223463;182;147332;-60
2023/08/14 16:49:13;;;;;;;16.20;9.20;;;;;;;30.32;42.10;99232.30;223344;183;139823;-60
2023/08/14 16:54:16;;;;;;;9.90;8.00;;;;;;;30.24;42.23;99235.63;223513;182;137963;-60
2023/08/14 16:59:19;;;;;;;12.70;6.70;;;;;;;30.15;42.59;99241.05;223489;182;151025;-60
2023/08/14 17:04:23;;;;;;;34.60;28.50;;;;;;;30.05;42.92;99242.85;223354;183;139617;-60
2023/08/14 17:09:26;;;;;;;19.60;14.30;;;;;;;29.95;43.30;99249.55;223415;182;137875;-60
2023/08/14 17:14:29;;;;;;;12.00;10.10;;;;;;;29.83;43.79;99249.30;223437;182;148288;-59
2023/08/14 17:19:33;;;;;;;12.10;7.20;;;;;;;29.73;44.30;99255.27;223348;181;138569;-59
2023/08/14 17:24:36;;;;;;;8.00;5.50;;;;;;;29.63;44.73;99260.85;223419;181;138118;-60
2023/08/14 17:29:40;;;;;;;8.50;5.00;;;;;;;29.52;45.25;99262.86;223446;182;147750;-62
2023/08/14 17:34:43;;;;;;;24.30;17.10;;;;;;;29.42;45.44;99265.69;223304;183;140202;-61
2023/08/14 17:39:46;;;;;;;19.70;14.70;;;;;;;29.30;45.98;99264.64;223231;181;139091;-60
2023/08/14 17:44:49;;;;;;;19.80;13.20;;;;;;;29.19;46.70;99267.21;223363;182;147355;-60
2023/08/14 17:49:54;;;;;;;19.50;13.70;;;;;;;29.08;47.26;99268.16;223319;181;140106;-60
2023/08/14 17:54:57;;;;;;;18.20;12.70;;;;;;;28.96;47.69;99271.41;223326;181;137321;-60
2023/08/14 18:00:00;;;;;;;14.70;8.10;;;;;;;28.83;48.07;99275.60;223539;181;147611;-59
2023/08/14 18:05:31;;;;;;;11.10;8.20;;;;;;;28.67;48.60;99279.90;223427;181;139822;-61
2023/08/14 18:10:34;;;;;;;10.30;6.50;;;;;;;28.57;49.15;99287.16;223319;182;137469;-60
2023/08/14 18:15:38;;;;;;;9.70;6.30;;;;;;;28.47;49.20;99289.81;223349;181;147536;-60
2023/08/14 18:20:54;;;;;;;9.80;4.90;;;;;;;28.38;49.59;99294.35;223368;182;138729;-61
2023/08/14 18:25:57;;;;;;;74.40;61.50;;;;;;;28.28;50.16;99298.39;223369;181;138612;-62
2023/08/14 18:31:01;;;;;;;458.80;409.80;;;;;;;28.20;50.64;99294.97;223428;181;147631;-66
2023/08/14 18:36:04;;;;;;;51.00;38.40;;;;;;;28.16;50.87;99301.65;223461;181;139042;-59
2023/08/14 18:41:08;;;;;;;19.00;13.70;;;;;;;28.05;51.08;99310.01;223349;182;138004;-61
2023/08/14 18:46:11;;;;;;;26.00;21.30;;;;;;;27.96;51.43;99313.45;223343;181;148253;-60
2023/08/14 18:51:14;;;;;;;13.70;6.70;;;;;;;27.86;51.77;99318.05;223293;182;139578;-59
2023/08/14 18:56:18;;;;;;;24.90;18.70;;;;;;;27.77;52.21;99316.00;223289;181;138912;-61
2023/08/14 19:01:22;;;;;;;83.30;65.40;;;;;;;27.70;52.89;99317.98;223547;181;147726;-62
2023/08/14 19:06:25;;;;;;;13.10;9.80;;;;;;;27.64;53.23;99318.61;223302;181;141189;-61
2023/08/14 19:11:28;;;;;;;15.30;7.20;;;;;;;27.52;53.56;99319.10;223445;182;137403;-61
2023/08/14 19:16:33;;;;;;;14.60;6.80;;;;;;;27.40;53.79;99324.77;223427;182;147597;-63
2023/08/14 19:21:36;;;;;;;14.00;5.90;;;;;;;27.29;54.33;99316.04;223434;181;138550;-61
2023/08/14 19:26:41;;;;;;;153.60;126.20;;;;;;;27.19;54.65;99318.09;223448;181;137488;-61
2023/08/14 19:31:44;;;;;;;46.40;36.50;;;;;;;27.11;55.37;99315.90;223312;182;147406;-62
2023/08/14 19:36:47;;;;;;;36.40;29.60;;;;;;;27.07;55.71;99314.02;223412;181;139673;-61
2023/08/14 19:41:53;;;;;;;18.10;10.20;;;;;;;27.05;56.22;99310.83;223417;182;139057;-62
2023/08/14 19:46:56;;;;;;;307.10;264.90;;;;;;;27.02;56.80;99311.58;223361;181;147949;-61
2023/08/14 19:51:59;;;;;;;40.50;31.30;;;;;;;26.96;56.85;99316.44;223386;182;139026;-69
2023/08/14 19:57:02;;;;;;;20.70;10.60;;;;;;;26.89;57.02;99311.38;223444;181;139501;-62
2023/08/14 20:02:06;;;;;;;107.00;85.00;;;;;;;26.80;57.66;99313.08;222998;181;148431;-60
2023/08/14 20:07:09;;;;;;;271.00;241.30;;;;;;;26.73;57.98;99314.17;223428;181;139191;-63
2023/08/14 20:12:12;;;;;;;30.60;22.80;;;;;;;26.67;58.18;99312.41;223539;181;138746;-64
2023/08/14 20:17:15;;;;;;;33.60;24.20;;;;;;;26.57;58.61;99318.87;223435;181;149088;-65
2023/08/14 20:22:22;;;;;;;17.90;9.60;;;;;;;26.50;59.22;99320.36;223426;181;139157;-63
2023/08/14 20:27:26;;;;;;;44.50;35.50;;;;;;;26.41;59.64;99323.70;223450;182;136906;-62
2023/08/14 20:32:29;;;;;;;21.80;11.80;;;;;;;26.35;59.87;99329.38;223441;181;148741;-63
2023/08/14 20:37:33;;;;;;;305.50;259.30;;;;;;;26.30;60.12;99328.91;223342;181;140110;-62
2023/08/14 20:42:36;;;;;;;38.80;28.10;;;;;;;26.29;60.22;99332.41;223462;181;138135;-63
2023/08/14 20:47:39;;;;;;;15.50;9.40;;;;;;;26.19;60.43;99333.58;223537;182;148321;-62
2023/08/14 20:52:43;;;;;;;14.50;8.50;;;;;;;26.03;60.94;99328.06;223495;181;138883;-68
2023/08/14 20:57:47;;;;;;;14.10;7.50;;;;;;;25.89;61.32;99326.38;223442;181;137633;-66
2023/08/14 21:02:50;;;;;;;13.70;7.90;;;;;;;25.81;61.64;99327.92;223428;181;147651;-69
2023/08/14 21:07:53;;;;;;;12.70;7.40;;;;;;;25.77;61.83;99331.40;223442;181;138898;-68
2023/08/14 21:12:57;;;;;;;15.30;7.50;;;;;;;25.73;61.89;99324.76;223493;181;137929;-66
2023/08/14 21:18:01;;;;;;;11.60;7.10;;;;;;;25.69;61.89;99328.21;223496;182;147633;-67
2023/08/14 21:23:04;;;;;;;10.60;7.00;;;;;;;25.64;62.13;99332.55;223467;182;138634;-67
2023/08/14 21:28:07;;;;;;;16.30;6.90;;;;;;;25.59;62.17;99335.05;223518;181;138158;-67
2023/08/14 21:33:11;;;;;;;12.60;7.20;;;;;;;25.51;62.51;99338.77;223455;181;147596;-66
2023/08/14 21:38:14;;;;;;;9.70;6.50;;;;;;;25.39;62.87;99339.83;223472;182;138994;-64
2023/08/14 21:43:17;;;;;;;10.80;7.40;;;;;;;25.29;63.33;99345.57;223344;182;137419;-65
2023/08/14 21:48:21;;;;;;;10.40;7.00;;;;;;;25.17;63.63;99342.80;223444;182;148459;-67
2023/08/14 21:53:24;;;;;;;12.00;6.50;;;;;;;25.09;64.14;99343.89;223494;181;142608;-66
2023/08/14 21:58:28;;;;;;;13.70;7.20;;;;;;;25.04;64.26;99336.33;223511;182;137582;-68
2023/08/14 22:03:31;;;;;;;14.70;7.80;;;;;;;24.99;64.48;99334.19;223488;182;147624;-66
2023/08/14 22:08:34;;;;;;;11.70;7.30;;;;;;;24.94;64.68;99330.06;223357;181;140440;-66
2023/08/14 22:13:38;;;;;;;15.70;7.90;;;;;;;24.87;64.56;99330.60;223360;181;137257;-65
2023/08/14 22:18:45;;;;;;;16.30;8.90;;;;;;;24.80;65.13;99332.69;223465;181;148581;-65
2023/08/14 22:23:49;;;;;;;13.50;7.50;;;;;;;24.73;65.36;99329.58;223301;181;138599;-66
2023/08/14 22:28:52;;;;;;;14.30;8.10;;;;;;;24.65;65.61;99327.60;223452;181;139507;-65
2023/08/14 22:33:56;;;;;;;13.70;7.90;;;;;;;24.56;66.12;99324.70;223350;181;148586;-65
2023/08/14 22:38:59;;;;;;;17.00;7.80;;;;;;;24.49;66.34;99326.03;223416;182;140202;-65
2023/08/14 22:44:02;;;;;;;13.60;8.30;;;;;;;24.43;66.23;99324.56;223468;181;138761;-66
2023/08/14 22:49:17;;;;;;;15.90;8.50;;;;;;;24.37;66.43;99318.54;223500;181;148832;-65
2023/08/14 22:54:20;;;;;;;15.70;8.30;;;;;;;24.30;66.29;99317.85;223451;182;140323;-65
2023/08/14 22:59:23;;;;;;;17.10;8.80;;;;;;;24.21;66.14;99319.99;223329;181;138568;-66
2023/08/14 23:04:26;;;;;;;12.70;8.00;;;;;;;24.10;66.41;99321.19;223420;182;148157;-66
2023/08/14 23:09:29;;;;;;;13.10;8.30;;;;;;;24.00;66.57;99318.36;223434;181;139010;-65
2023/08/14 23:14:33;;;;;;;12.50;8.50;;;;;;;23.91;66.97;99320.52;223433;181;137011;-63
2023/08/14 23:25:29;;;;;;;15.40;8.90;;;;;;;23.77;67.48;99322.73;221280;193;666817;-63
2023/08/14 23:30:36;;;;;;;15.70;8.30;;;;;;;23.72;67.66;99323.39;223359;183;137557;-64
2023/08/14 23:35:39;;;;;;;13.10;8.70;;;;;;;23.70;67.72;99321.94;223425;183;144088;-65